Tabella Stazioni Meteo Lazio



Provincia di Frosinone
ID Località Altitudine Data Temp (°C) Temp Min (°C) Temp Max (°C) Hum (%) Pressure (hPa) Wind (Km/h) Wind Dir Wind Gust (Km/h) Wind Gust Max (Km/h) Rain (mm) Dewpoint (°C)
ILAZIOPI2 Stazione meteo Pico – Colleponte 114 m s.l.m. 2019-08-22 05:54:31 19.4 19.4 22.3 81 1016.1 0.0 S 0.0 1.6 0.00 16.1
Stazione meteo Alvito – Colle Santa Lucia 465 m s.l.m.
ILAZIOPO8 Stazione meteo Pontecorvo – Via Babuino 94 m s.l.m. 2019-08-22 05:55:14 20.4 20.4 24.3 81 1017.3 0.0 SE 0.0 6.4 0.00 17.1
ILAZIOLA19 Stazione meteo Anagni – Strada Vic.le Collacciano 240 m s.l.m. 2019-08-22 05:55:02 23.0 23.0 27.5 54 1013.0 0.0 S 0.0 3.2 0.00 13.0
Provincia di Latina
ID Località Altitudine Data Temp (°C) Temp Min (°C) Temp Max (°C) Hum (%) Pressure (hPa) Wind (Km/h) Wind Dir Wind Gust (Km/h) Wind Gust Max (Km/h) Rain (mm) Dewpoint (°C)
ICISTE1 Stazione meteo Cisterna – Centro Storico 81 m s.l.m. 2019-08-22 05:55:04 20.7 20.7 23.6 75 1020.1 0.0 NW 1.1 8.6 0.00 16.1
ICISTE2 Stazione meteo Cisterna – Indinvest LT 42 m s.l.m. 2019-08-22 05:55:04 20.7 19.9 23.1 83 1017.6 0.0 NNW 0.0 6.4 0.00 17.7
ICISTE3 Stazione meteo Cisterna – San Valentino 93 m s.l.m. 2019-08-22 05:55:04 20.4 20.2 22.7 80 1033.4 0.0 N 0.0 6.1 0.00 16.8
Stazione meteo Latina – Borgo Montello 31 m s.l.m.
ILAZIOLA8 Stazione meteo Latina – Strada Quartaccio 13 m s.l.m. 2019-08-22 05:54:00 19.7 19.7 23.2 87 1015.3 0.0 N 0.0 3.2 0.00 17.5
ISEZZE3 Stazione meteo Sezze – Via Piagge Marine 310 m s.l.m. 2019-08-22 05:54:00 22.7 22.1 24.4 66 1014.8 6.4 NNE 6.4 12.9 0.00 16.0
IROCCA5 Stazione meteo Rocca Massima – Flying in the sky 723 m s.l.m. 2019-08-22 05:55:04 23.4 22.8 24.9 53 1022.7 2.5 SW 3.6 13.3 0.00 13.3
Provincia di Roma
ID Località Altitudine Data Temp (°C) Temp Min (°C) Temp Max (°C) Hum (%) Pressure (hPa) Wind (Km/h) Wind Dir Wind Gust (Km/h) Wind Gust Max (Km/h) Rain (mm) Dewpoint (°C)
IROCCA2 Stazione meteo Rocca di Papa – Pratoni del Vivaro 528 m s.l.m. 2019-08-22 05:54:12 11.0 11.0 14.0 99 1016.9 0.0 167 0.0 0.0 0.00 11.0
IVELLE13 Stazione meteo Velletri – Crocefissi 227m 227 m s.l.m. 2019-08-22 05:54:07 17.0 17.0 19.0 92 1026.1 1.0 264 2.0 4.0 0.00 16.0
IVELLE10 Stazione meteo Velletri – Crocefissi 259m 259 m s.l.m. 2019-08-22 05:55:02 21.0 20.5 22.6 71 1016.7 2.5 N 5.0 9.7 0.00 15.5
IVELLE11 Stazione meteo Velletri – 5 Archi 188 m s.l.m. 2019-08-22 05:55:03 19.8 19.7 21.3 70 1016.8 2.6 NE 2.5 5.0 0.00 14.2
IVELLE12 Stazione meteo Velletri – Centro 380 m s.l.m. 2019-08-22 05:55:04 23.2 23.1 26.3 70 1018.2 3.6 N 6.1 11.2 0.00 17.4
Stazione meteo Velletri – San Clemente 335 m s.l.m.
Stazione meteo Velletri – Appia Sud 142 m s.l.m.
Stazione meteo Velletri – Fontana Fiume 512 m s.l.m.
ILAZIOLA23 Stazione meteo Lariano – Centro 370 m s.l.m. 2019-08-22 05:55:09 23.0 23.0 25.0 61 1015.9 0.0 150 0.0 8.0 0.00 15.0
ILAZIOMA6 Stazione meteo Artena – Macere 345 m s.l.m. 2019-08-22 05:54:18 20.0 20.0 22.0 78 1020.6 0.0 3.0 9.0 0.00 16.0
ILAZIOPO4 Stazione meteo Pomezia – Via Federico Fellini 78 m s.l.m. 2019-08-22 05:54:10 23.9 23.9 24.4 92 1015.6 0.0 WNW 0.0 4.8 0.00 22.6
Stazione meteo Rocca di Papa – Monte Faete 970 m s.l.m.
IALLUMIE2 Stazione meteo Allumiere – Loc. La Bianca 503 m s.l.m. 2019-08-22 05:55:03 22.2 21.1 23.8 63 1015.6 5.0 NW 6.1 11.2 0.00 14.8
Provincia di Viterbo
ID Località Altitudine Data Temp (°C) Temp Min (°C) Temp Max (°C) Hum (%) Pressure (hPa) Wind (Km/h) Wind Dir Wind Gust (Km/h) Wind Gust Max (Km/h) Rain (mm) Dewpoint (°C)
INEPI3 Stazione meteo Nepi – Via Umiltà 216 m s.l.m. 2019-08-22 05:54:59 17.0 17.0 22.0 95 1018.2 0.0 303 0.0 5.0 0.00 16.0
IVITERBO7 Stazione meteo Marta – Via Laertina 320 m s.l.m. 2019-08-22 05:54:20 21.3 21.3 23.1 93 1018.3 4.0 S 4.0 14.4 0.00 20.1
ILAZIOVI8 Stazione meteo San Lorenzo Nuovo – Piazza Europa 519 m s.l.m. 2019-08-22 05:54:39 21.4 20.8 22.9 78 1017.6 4.3 NNE 4.3 15.5 0.00 17.4